Data for 08/19/2006

Time Sea-Level Adjusted Pressure Absolute Pressure Temperature Relative Humidity Dew Point   
(mb) (inHg) (mb) (inHg) (C) (F) (%) (C) (F)
00:05 1024 30.24 853 25.19 12.9 55.3 44 1 33.9
00:10 1024 30.24 853 25.19 12.9 55.2 43 0.9 33.5
00:15 1024 30.24 853 25.19 12.8 55.1 46 1.4 34.6
00:20 1024 30.24 853 25.19 12.3 54.2 47 1.5 34.7
00:25 1024 30.24 853 25.19 12.3 54.1 46 1 33.7
00:30 1024 30.24 853 25.19 12.5 54.4 44 0.5 32.9
00:35 1024 30.24 853 25.19 12.9 55.2 43 0.5 32.9
00:40 1024 30.24 853 25.19 13.1 55.5 43 0.8 33.4
00:45 1024 30.24 853 25.19 13.1 55.5 43 1 33.7
00:50 1024 30.24 853 25.19 13.1 55.7 43 0.9 33.6
00:55 1024 30.24 853 25.19 13.2 55.7 42 0.5 33
01:00 1024 30.24 853 25.19 13.4 56.2 41 0.7 33.2
01:05 1024 30.24 853 25.19 13.5 56.3 42 1 33.8
01:10 1024 30.24 853 25.19 13.5 56.3 44 1.4 34.6
01:15 1024 30.24 853 25.19 12.9 55.1 48 2.1 35.7
01:20 1024 30.24 853 25.19 12.9 55.2 42 0.5 32.8
01:25 1024 30.24 853 25.19 12.7 54.8 45 1.1 34.1
01:30 1024 30.24 853 25.19 12.1 53.7 50 2.1 35.8
01:35 1024 30.24 853 25.19 11.4 52.5 54 2.4 36.3
01:40 1024 30.24 853 25.19 10.9 51.5 54 1.9 35.5
01:45 1024 30.24 853 25.19 11.4 52.5 48 0.9 33.6
01:50 1024 30.24 853 25.19 12 53.5 46 0.8 33.4
01:55 1024 30.24 853 25.19 11.9 53.3 48 1.2 34.2
02:00 1024 30.24 853 25.19 11.9 53.4 47 1 33.8
02:05 1024 30.24 853 25.19 11.9 53.5 49 1.6 35
02:10 1024 30.24 853 25.19 11.6 52.9 47 0.9 33.6
02:15 1024 30.24 853 25.19 12.2 54 46 0.9 33.7
02:20 1024 30.24 853 25.19 12.3 54.1 47 1.3 34.4
02:25 1024 30.24 853 25.19 12.2 54 47 1.3 34.4
02:30 1024 30.24 853 25.19 12.3 54.2 46 1.2 34.2
02:35 1024 30.24 853 25.19 12.4 54.3 48 1.7 35
02:40 1024 30.24 853 25.19 12.4 54.4 47 1.4 34.5
02:45 1024 30.24 853 25.19 12.5 54.5 47 1.7 35
02:50 1024 30.24 853 25.19 12.4 54.2 48 1.7 35.1
02:55 1024 30.24 853 25.19 12.1 53.7 48 1.5 34.8
03:00 1024 30.24 853 25.19 12 53.5 49 1.6 34.9
03:05 1024 30.24 853 25.19 11.9 53.3 49 1.6 34.8
03:10 1024 30.24 853 25.19 11.8 53.3 47 1 33.9
03:15 1024 30.24 853 25.19 12.1 53.8 48 1.6 34.9
03:20 1024 30.24 853 25.19 12.3 54.1 48 1.6 34.9
03:25 1024 30.24 853 25.19 12.5 54.4 49 2 35.6
03:30 1024 30.24 853 25.19 12.4 54.3 48 1.8 35.3
03:35 1024 30.24 853 25.19 12.3 54.1 50 2.1 35.9
03:40 1024 30.24 853 25.19 11.9 53.4 50 1.8 35.3
03:45 1024 30.24 853 25.19 11.8 53.2 49 1.6 34.9
03:50 1024 30.24 853 25.19 11.5 52.7 49 1.3 34.3
03:55 1024 30.24 853 25.19 11.6 53 48 1.2 34.1
04:00 1024 30.24 853 25.19 11.8 53.2 48 1.1 34
04:05 1024 30.24 853 25.19 11.8 53.3 47 1.1 34
04:10 1024 30.24 853 25.19 11.7 53.1 48 1.2 34.2
04:15 1024 30.24 853 25.19 11.6 53 50 1.5 34.7
04:20 1024 30.24 853 25.19 11.9 53.3 48 1.2 34.2
04:25 1023 30.21 853 25.19 12.3 54.1 47 1.4 34.6
04:30 1023 30.21 853 25.19 12.4 54.2 48 1.6 34.9
04:35 1023 30.21 853 25.19 12 53.6 49 1.6 34.8
04:40 1023 30.21 853 25.19 11.8 53.3 50 1.8 35.2
04:45 1024 30.24 853 25.19 11.7 53.1 49 1.5 34.7
04:50 1024 30.24 853 25.19 12 53.6 48 1.4 34.4
04:55 1024 30.24 853 25.19 12.2 53.9 48 1.6 34.9
05:00 1024 30.24 853 25.19 12.1 53.8 48 1.5 34.7
05:05 1024 30.24 853 25.19 12.1 53.7 49 1.9 35.3
05:10 1024 30.24 853 25.19 12 53.6 48 1.4 34.5
05:15 1024 30.24 853 25.19 11.6 52.9 52 2.1 35.8
05:20 1023 30.21 853 25.19 11 51.8 54 2.1 35.7
05:25 1024 30.24 853 25.19 10.5 50.9 55 1.8 35.2
05:30 1024 30.24 853 25.19 10.1 50.2 57 2 35.5
05:35 1024 30.24 853 25.19 9.9 49.9 58 2.1 35.7
05:40 1024 30.24 853 25.19 9.7 49.4 59 2 35.7
05:45 1024 30.24 853 25.19 9.7 49.5 57 1.7 35.1
05:50 1024 30.24 853 25.19 10.2 50.3 54 1.3 34.4
05:55 1023 30.21 853 25.19 10.4 50.8 54 1.5 34.8
06:00 1023 30.21 853 25.19 10.5 50.9 54 1.6 34.9
06:05 1024 30.24 853 25.19 10.4 50.6 55 1.8 35.3
06:10 1024 30.24 853 25.19 10.2 50.3 55 1.7 35
06:15 1024 30.24 853 25.19 10.2 50.4 55 1.6 34.9
06:20 1024 30.24 853 25.19 10.4 50.7 54 1.6 34.9
06:25 1024 30.24 853 25.19 10.2 50.3 54 1.4 34.6
06:30 1024 30.24 853 25.19 10.2 50.3 55 1.6 34.9
06:35 1024 30.24 853 25.19 10.2 50.3 55 1.6 34.9
06:40 1024 30.24 853 25.19 9.7 49.5 59 2.1 35.8
06:45 1024 30.24 853 25.19 9.7 49.4 56 1.4 34.5
06:50 1024 30.24 853 25.19 10.2 50.3 54 1.4 34.5
06:55 1024 30.24 853 25.19 10.4 50.7 54 1.6 34.9
07:00 1024 30.24 853 25.19 10.2 50.3 56 1.8 35.2
07:05 1024 30.24 853 25.19 10.2 50.4 56 1.8 35.2
07:10 1024 30.24 853 25.19 10 50.1 57 2 35.6
07:15 1024 30.24 853 25.19 10 50 55 1.5 34.7
07:20 1024 30.24 853 25.19 10.6 51 53 1.4 34.5
07:25 1024 30.24 853 25.19 10.9 51.5 54 1.9 35.5
07:30 1024 30.24 853 25.19 10.9 51.6 55 2.2 35.9
07:35 1024 30.24 853 25.19 10.9 51.6 54 2.1 35.8
07:40 1024 30.24 853 25.19 11.2 52.1 54 2.2 35.9
07:45 1024 30.24 853 25.19 11.4 52.4 53 2.2 36
07:50 1024 30.24 853 25.19 11.5 52.6 53 2.2 36
07:55 1024 30.24 853 25.19 11.8 53.2 53 2.5 36.5
08:00 1024 30.24 853 25.19 12.2 54 51 2.5 36.5
08:05 1024 30.24 853 25.19 12.4 54.4 51 2.6 36.6
08:10 1024 30.24 853 25.19 12.7 54.8 50 2.6 36.7
08:15 1024 30.24 853 25.19 13 55.4 49 2.8 37
08:20 1024 30.24 853 25.19 13.5 56.2 49 3 37.3
08:25 1024 30.24 853 25.19 13.9 57.1 48 3.2 37.8
08:30 1024 30.24 853 25.19 14.3 57.8 46 3.1 37.5
08:35 1024 30.24 853 25.19 14.5 58 47 3.3 38
08:40 1024 30.24 853 25.19 14.9 58.8 45 3.3 37.9
08:45 1024 30.24 853 25.19 14.9 58.8 46 3.5 38.2
08:50 1024 30.24 853 25.19 15.3 59.6 46 3.9 39
08:55 1024 30.24 853 25.19 16.2 61.1 40 2.8 37.1
09:00 1024 30.24 853 25.19 16.5 61.7 41 3.4 38.2
09:05 1024 30.24 853 25.19 16.9 62.3 41 3.5 38.3
09:10 1024 30.24 853 25.19 17.5 63.5 38 3.3 37.9
09:15 1024 30.24 853 25.19 17.3 63.2 38 3.1 37.6
09:20 1024 30.24 853 25.19 16.9 62.3 40 3.2 37.8
09:25 1024 30.24 853 25.19 17.4 63.4 40 3.6 38.5
09:30 1024 30.24 853 25.19 17.2 63 39 3.2 37.7
09:35 1024 30.24 853 25.19 17.1 62.8 39 3 37.4
09:40 1024 30.24 853 25.19 17.7 63.8 36 2.5 36.5
09:45 1024 30.24 853 25.19 17.9 64.2 36 2.6 36.7
09:50 1024 30.24 853 25.19 17.6 63.8 36 2.4 36.3
09:55 1024 30.24 853 25.19 17.5 63.5 37 2.7 36.9
10:00 1024 30.24 853 25.19 18.4 65 35 2.8 37
10:05 1023 30.21 853 25.19 18.8 65.9 34 2.8 37
10:10 1024 30.24 853 25.19 19.4 66.9 34 3.1 37.6
10:15 1023 30.21 853 25.19 19.7 67.5 33 3.1 37.7
10:20 1024 30.24 853 25.19 20.3 68.6 31 2.7 36.9
10:25 1024 30.24 853 25.19 20.3 68.6 31 3 37.4
10:30 1024 30.24 853 25.19 20.5 68.8 30 2.7 36.8
10:35 1023 30.21 853 25.19 20.8 69.5 31 3.1 37.6
10:40 1023 30.21 853 25.19 20.9 69.5 31 3.3 38
10:45 1023 30.21 853 25.19 20.3 68.5 30 2.3 36.1
10:50 1023 30.21 853 25.19 20.8 69.4 31 3.1 37.6
10:55 1023 30.21 853 25.19 21.2 70.2 30 3.1 37.6
11:00 1023 30.21 853 25.19 21.6 70.9 30 3.7 38.6
11:05 1023 30.21 853 25.19 21.3 70.3 29 2.9 37.2
11:10 1023 30.21 853 25.19 21.4 70.5 30 3.4 38.1
11:15 1023 30.21 853 25.19 22.2 71.9 30 3.7 38.7
11:20 1023 30.21 853 25.19 22.3 72.2 28 3.1 37.5
11:25 1023 30.21 852 25.16 21.2 70.1 31 3.4 38.1
11:30 1023 30.21 852 25.16 22 71.7 27 2.4 36.3
11:35 1023 30.21 852 25.16 22.3 72.1 28 3.1 37.6
11:40 1023 30.21 852 25.16 22.8 73 27 2.9 37.2
11:45 1023 30.21 852 25.16 23.1 73.5 27 3.3 37.9
11:50 1023 30.21 852 25.16 23.3 74 28 3.9 39
11:55 1023 30.21 852 25.16 23.2 73.8 27 3.3 37.9
12:00 1023 30.21 852 25.16 21.9 71.3 28 2.7 36.9
12:05 1023 30.21 852 25.16 22.7 72.9 27 2.8 37
12:10 1023 30.21 852 25.16 23.5 74.4 26 3.2 37.8
12:15 1023 30.21 852 25.16 23.3 74 25 2.6 36.6
12:20 1023 30.21 852 25.16 24.3 75.7 25 3 37.4
12:25 1023 30.21 852 25.16 24.2 75.6 26 3.5 38.2
12:30 1023 30.21 852 25.16 23.9 75.1 26 3.4 38.2
12:35 1023 30.21 852 25.16 23.4 74.1 26 2.9 37.2
12:40 1023 30.21 852 25.16 23.5 74.3 24 2.1 35.8
12:45 1022 30.18 852 25.16 24.4 75.9 24 2.6 36.7
12:50 1022 30.18 852 25.16 24.5 76.1 22 1.8 35.3
12:55 1022 30.18 851 25.13 24.9 76.8 24 3.3 37.9
13:00 1022 30.18 851 25.13 24.9 76.8 25 3.6 38.5
13:05 1022 30.18 851 25.13 24.6 76.2 25 3.7 38.7
13:10 1022 30.18 851 25.13 25.1 77.1 25 3.7 38.7
13:15 1022 30.18 851 25.13 24.9 76.9 21 1 33.9
13:20 1022 30.18 851 25.13 24.7 76.4 23 2.2 36
13:25 1022 30.18 851 25.13 25.1 77.2 21 1.8 35.2
13:30 1022 30.18 851 25.13 26 78.9 20 1.4 34.6
13:35 1022 30.18 851 25.13 26.1 79 20 1.8 35.3
13:40 1022 30.18 851 25.13 26.5 79.6 19 1.3 34.4
13:45 1022 30.18 851 25.13 27.1 80.7 18 1.3 34.4
13:50 1021 30.15 851 25.13 26.9 80.3 20 2.3 36.1
13:55 1021 30.15 851 25.13 27 80.7 18 0.7 33.3
14:00 1021 30.15 851 25.13 27.4 81.4 18 1.6 34.9
14:05 1021 30.15 851 25.13 27 80.5 18 1.3 34.3
14:10 1021 30.15 851 25.13 26.9 80.4 18 0.8 33.4
14:15 1021 30.15 850 25.1 27 80.7 18 1.2 34.2
14:20 1021 30.15 850 25.1 26.7 80 19 1.4 34.5
14:25 1021 30.15 850 25.1 26.5 79.8 18 0.6 33.2
14:30 1021 30.15 850 25.1 26.3 79.3 19 0.9 33.6
14:35 1021 30.15 850 25.1 26.4 79.6 17 -0.6 30.9
14:40 1021 30.15 850 25.1 26.7 80.1 16 -1 30.2
14:45 1021 30.15 850 25.1 26.8 80.2 16 -1 30.1
14:50 1021 30.15 850 25.1 27.4 81.4 18 1.1 33.9
14:55 1021 30.15 850 25.1 27.4 81.3 15 -1.5 29.4
15:00 1021 30.15 850 25.1 26.7 80.1 15 -1.5 29.3
15:05 1021 30.15 850 25.1 27.3 81.2 15 -1.4 29.6
15:10 1021 30.15 850 25.1 27.9 82.2 15 -1 30.3
15:15 1021 30.15 850 25.1 27.5 81.6 15 -1.1 30.1
15:20 1021 30.15 850 25.1 27.8 82 15 -1.4 29.6
15:25 1021 30.15 850 25.1 27 80.5 15 -1.5 29.4
15:30 1020 30.12 850 25.1 27.2 81 16 -0.9 30.4
15:35 1020 30.12 850 25.1 27.9 82.2 14 -1.6 29.1
15:40 1020 30.12 850 25.1 27.8 82 15 -1.2 29.8
15:45 1020 30.12 850 25.1 27 80.7 15 -1.5 29.3
15:50 1020 30.12 850 25.1 27.6 81.7 15 -1 30.1
15:55 1020 30.12 849 25.07 28.1 82.5 15 -0.5 31.2
16:00 1020 30.12 849 25.07 28.4 83.1 15 -0.5 31
16:05 1020 30.12 849 25.07 28.1 82.6 15 -0.7 30.7
16:10 1020 30.12 849 25.07 28 82.4 15 -0.8 30.6
16:15 1020 30.12 849 25.07 28 82.3 15 -1 30.3
16:20 1020 30.12 849 25.07 27.2 81 15 -1.3 29.7
16:25 1020 30.12 849 25.07 27.6 81.7 15 -0.8 30.5
16:30 1020 30.12 849 25.07 28 82.3 15 -1.2 29.9
16:35 1020 30.12 849 25.07 27.9 82.3 15 -1 30.2
16:40 1020 30.12 849 25.07 28.2 82.8 15 -0.8 30.5
16:45 1020 30.12 849 25.07 28.6 83.4 15 -0.5 31.1
16:50 1020 30.12 849 25.07 28.5 83.3 15 -0.6 31
16:55 1020 30.12 849 25.07 28.6 83.4 15 -0.6 31
17:00 1020 30.12 849 25.07 28.7 83.6 15 -0.5 31.2
17:05 1020 30.12 849 25.07 28.7 83.6 14 -1 30.2
17:10 1020 30.12 849 25.07 28.9 84.1 14 -0.5 31.1
17:15 1020 30.12 849 25.07 28.8 83.8 15 -0.5 31
17:20 1020 30.12 849 25.07 28.4 83 16 0.1 32.2
17:25 1020 30.12 849 25.07 27.7 81.9 15 -1 30.2
17:30 1020 30.12 849 25.07 27.2 80.9 15 -1.1 30.1
17:35 1020 30.12 849 25.07 27.3 81.1 15 -1.7 28.9
17:40 1020 30.12 849 25.07 27.3 81.2 15 -1.4 29.4
17:45 1019 30.09 849 25.07 27.3 81.1 16 -0.6 31
17:50 1019 30.09 849 25.07 28.2 82.7 15 -0.6 30.9
17:55 1019 30.09 849 25.07 28.4 83.1 15 -0.5 31.1
18:00 1019 30.09 849 25.07 28.3 82.9 17 1 33.7
18:05 1019 30.09 849 25.07 27.6 81.7 15 -1.1 30
18:10 1019 30.09 849 25.07 27.4 81.3 16 -0.7 30.8
18:15 1019 30.09 849 25.07 27.1 80.7 15 -1.5 29.2
18:20 1019 30.09 848 25.04 26.8 80.2 15 -1.9 28.6
18:25 1019 30.09 848 25.04 27.1 80.8 15 -1.3 29.7
18:30 1019 30.09 848 25.04 27.7 81.8 16 0 32.1
18:35 1019 30.09 848 25.04 27.9 82.2 16 -0.1 31.9
18:40 1019 30.09 848 25.04 27 80.6 16 -0.7 30.8
18:45 1019 30.09 848 25.04 26.9 80.4 16 -1.1 30
18:50 1019 30.09 848 25.04 26.7 80.1 15 -1.4 29.5
18:55 1019 30.09 848 25.04 26.4 79.6 15 -1.8 28.8
19:00 1019 30.09 848 25.04 26.5 79.7 15 -2 28.5
19:05 1019 30.09 848 25.04 26.6 79.9 17 -0 32
19:10 1019 30.09 848 25.04 26.6 79.8 21 3 37.5
19:15 1019 30.09 848 25.04 26.4 79.5 18 0.2 32.3
19:20 1019 30.09 848 25.04 26.3 79.3 22 3.4 38.1
19:25 1019 30.09 848 25.04 26.2 79.1 18 0.4 32.7
19:30 1019 30.09 848 25.04 26 78.8 18 0.4 32.8
19:35 1019 30.09 848 25.04 26 78.8 21 2 35.5
19:40 1019 30.09 848 25.04 26 78.7 17 -1 30.2
19:45 1019 30.09 848 25.04 25.9 78.5 16 -1.6 29.1
19:50 1019 30.09 848 25.04 25.8 78.4 17 -0.7 30.8
19:55 1019 30.09 848 25.04 25.7 78.2 20 1.4 34.6
20:00 1019 30.09 848 25.04 25.4 77.6 20 1 33.9
20:05 1019 30.09 848 25.04 25.3 77.5 18 -0.7 30.7
20:10 1019 30.09 848 25.04 25.4 77.8 16 -1.9 28.5
20:15 1019 30.09 848 25.04 25.3 77.5 16 -2.2 28.1
20:20 1019 30.09 848 25.04 25.2 77.3 16 -2.1 28.2
20:25 1019 30.09 848 25.04 25.1 77.1 29 5.9 42.7
20:30 1019 30.09 848 25.04 23.7 74.7 30 5.3 41.5
20:35 1019 30.09 848 25.04 23.5 74.3 28 4.1 39.4
20:40 1019 30.09 848 25.04 22.4 72.3 34 5.8 42.5
20:45 1019 30.09 848 25.04 21.5 70.7 38 6.9 44.4
20:50 1019 30.09 848 25.04 21 69.7 37 5.8 42.5
20:55 1019 30.09 848 25.04 20.6 69 32 3.6 38.4
21:00 1019 30.09 848 25.04 20.4 68.8 33 3.9 39.1
21:05 1019 30.09 848 25.04 20.1 68.1 34 3.8 38.9
21:10 1019 30.09 848 25.04 19.4 66.9 41 5.8 42.5
21:15 1019 30.09 848 25.04 18.6 65.5 35 2.9 37.3
21:20 1019 30.09 848 25.04 19.2 66.6 30 1.3 34.4
21:25 1019 30.09 848 25.04 19.8 67.7 29 1.6 34.9
21:30 1019 30.09 848 25.04 19.8 67.6 30 2 35.6
21:35 1019 30.09 848 25.04 19.2 66.6 32 2.1 35.8
21:40 1019 30.09 848 25.04 18.6 65.6 32 2 35.5
21:45 1019 30.09 848 25.04 18.5 65.4 32 1.7 35
21:50 1019 30.09 848 25.04 18.5 65.3 32 1.7 35.1
21:55 1019 30.09 848 25.04 18.7 65.6 31 1.5 34.6
22:00 1019 30.09 848 25.04 18.9 65.9 31 1.6 34.8
22:05 1019 30.09 848 25.04 18.9 65.9 29 0.8 33.4
22:10 1019 30.09 848 25.04 18.9 66.1 31 1.4 34.5
22:15 1019 30.09 848 25.04 18.8 65.8 31 1.4 34.6
22:20 1019 30.09 848 25.04 18.6 65.6 31 1.4 34.5
22:25 1019 30.09 848 25.04 18.7 65.7 31 1.3 34.4
22:30 1019 30.09 848 25.04 18.7 65.6 30 0.8 33.4
22:35 1019 30.09 848 25.04 18.9 66 32 2 35.7
22:40 1019 30.09 848 25.04 18.9 66.1 30 1 33.7
22:45 1019 30.09 848 25.04 19.4 66.9 28 0.6 33.1
22:50 1019 30.09 848 25.04 19.6 67.2 31 2.1 35.8
22:55 1019 30.09 848 25.04 19.3 66.8 29 0.8 33.5
23:00 1019 30.09 848 25.04 19.7 67.4 28 0.8 33.5
23:05 1019 30.09 848 25.04 19.8 67.6 30 1.7 35.1
23:10 1019 30.09 848 25.04 19.2 66.6 30 1.4 34.5
23:15 1019 30.09 849 25.07 18.7 65.6 31 1.1 34
23:20 1020 30.12 849 25.07 18.4 65 31 1.2 34.2
23:25 1020 30.12 849 25.07 18 64.5 33 1.8 35.2
23:30 1020 30.12 849 25.07 18 64.4 32 1.2 34.1
23:35 1020 30.12 849 25.07 18.2 64.7 31 0.8 33.4
23:40 1020 30.12 849 25.07 18.1 64.6 31 0.8 33.5
23:45 1020 30.12 849 25.07 17.8 64 35 2.1 35.8
23:50 1020 30.12 849 25.07 17.2 63 34 1.5 34.8
23:55 1020 30.12 849 25.07 17.7 63.8 41 4.4 39.9
24:00 1020 30.12 849 25.07 17.6 63.7 36 2.4 36.3